createdAt,value
2023-09-23T00:02:07.469Z,102449.38
2023-09-23T00:07:10.693Z,102479.22
2023-09-23T00:12:13.822Z,102458.56
2023-09-23T00:17:16.942Z,102494.66
2023-09-23T00:22:20.032Z,102471.25
2023-09-23T00:27:23.429Z,102494.91
2023-09-23T00:32:26.504Z,102490.53
2023-09-23T00:37:31.978Z,102489.84
2023-09-23T00:42:35.156Z,102490.94
2023-09-23T00:47:38.233Z,102468.59
2023-09-23T00:52:42.453Z,102499.31
2023-09-23T00:57:47.769Z,102505.63
2023-09-23T01:02:51.378Z,102474.28
2023-09-23T01:07:58.148Z,102486.69
2023-09-23T01:13:01.444Z,102487.75
2023-09-23T01:18:05.846Z,102498.31
2023-09-23T01:23:12.625Z,102503.69
2023-09-23T01:28:15.753Z,102476.78
2023-09-23T01:33:19.030Z,102492.66
2023-09-23T01:38:22.168Z,102520.16
2023-09-23T01:43:25.257Z,102520.31
2023-09-23T01:48:31.318Z,102494.31
2023-09-23T01:53:34.441Z,102528.72
2023-09-23T01:58:37.626Z,102508.81
2023-09-23T02:03:40.825Z,102525.53
2023-09-23T02:08:44.346Z,102527.69
2023-09-23T02:13:48.658Z,102539.34
2023-09-23T02:18:52.734Z,102544.03
2023-09-23T02:23:58.762Z,102546.88
2023-09-23T02:29:01.879Z,102545.44
2023-09-23T02:34:07.430Z,102553.63
2023-09-23T02:39:17.541Z,102560.03
2023-09-23T02:44:21.728Z,102571.69
2023-09-23T02:49:24.995Z,102565.69
2023-09-23T02:54:28.424Z,102530.69
2023-09-23T02:59:32.841Z,102572.97
2023-09-23T03:04:36.604Z,102580.13
2023-09-23T03:09:45.429Z,102578.50
2023-09-23T03:14:53.292Z,102555.78
2023-09-23T03:19:56.376Z,102592.59
2023-09-23T03:24:59.568Z,102580.31
2023-09-23T03:30:05.004Z,102603.97
2023-09-23T03:35:15.418Z,102602.06
2023-09-23T03:40:25.969Z,102608.16
2023-09-23T03:45:33.639Z,102590.50
2023-09-23T03:50:36.768Z,102588.59
2023-09-23T03:55:41.044Z,102580.53
2023-09-23T04:00:45.272Z,102613.63
2023-09-23T04:05:56.869Z,102621.47
2023-09-23T04:11:05.890Z,102622.97
2023-09-23T04:16:09.113Z,102590.41
2023-09-23T04:21:12.662Z,102632.19
2023-09-23T04:26:16.233Z,102631.84
2023-09-23T04:31:20.421Z,102633.34
2023-09-23T04:36:23.630Z,102636.47
2023-09-23T04:41:26.760Z,102643.97
2023-09-23T04:46:34.004Z,102630.34
2023-09-23T04:51:37.243Z,102634.16
2023-09-23T04:56:43.312Z,102608.28
2023-09-23T05:01:47.556Z,102631.22
2023-09-23T05:06:52.315Z,102633.22
2023-09-23T05:11:56.515Z,102649.22
2023-09-23T05:17:00.849Z,102614.16
2023-09-23T05:22:05.294Z,102624.81
2023-09-23T05:27:08.366Z,102608.88
2023-09-23T05:32:12.434Z,102627.19
2023-09-23T05:37:15.791Z,102640.31
2023-09-23T05:42:24.586Z,102568.84
2023-09-23T05:47:27.778Z,102645.66
2023-09-23T05:52:31.669Z,102653.59
2023-09-23T05:57:40.271Z,102631.84
2023-09-23T06:02:46.693Z,102632.91
2023-09-23T06:07:50.314Z,102634.69
2023-09-23T06:12:53.514Z,102634.25
2023-09-23T06:17:57.038Z,102619.00
2023-09-23T06:23:00.243Z,102618.16
2023-09-23T06:28:03.366Z,102646.25
2023-09-23T06:33:06.508Z,102650.34
2023-09-23T06:38:09.774Z,102654.25
2023-09-23T06:43:13.721Z,102617.50
2023-09-23T06:48:16.791Z,102613.16
2023-09-23T06:53:19.933Z,102608.78
2023-09-23T06:58:23.341Z,102639.69
2023-09-23T07:03:27.076Z,102635.53
2023-09-23T07:08:30.395Z,102629.72
2023-09-23T07:13:33.569Z,102634.47
2023-09-23T07:18:37.484Z,102632.16
2023-09-23T07:23:40.913Z,102629.31
2023-09-23T07:28:44.004Z,102627.75
2023-09-23T07:33:47.365Z,102621.56
2023-09-23T07:38:50.579Z,102623.50
2023-09-23T07:43:53.765Z,102612.28
2023-09-23T07:48:57.293Z,102565.25
2023-09-23T07:54:00.432Z,102609.81
2023-09-23T07:59:03.676Z,102609.19
2023-09-23T08:04:06.894Z,102553.56
2023-09-23T08:09:10.686Z,102598.75
2023-09-23T08:14:13.901Z,102571.00
2023-09-23T08:20:05.276Z,102591.47
2023-09-23T08:25:14.072Z,102558.06
2023-09-23T08:30:18.006Z,102589.22
2023-09-23T08:35:22.136Z,102591.00
2023-09-23T08:40:26.518Z,102587.16
2023-09-23T08:45:31.645Z,102559.84
2023-09-23T08:50:36.011Z,102578.09
2023-09-23T08:55:39.926Z,102562.25
2023-09-23T09:00:48.092Z,102571.09
2023-09-23T09:05:51.496Z,102568.91
2023-09-23T09:11:00.043Z,102554.25
2023-09-23T09:16:07.365Z,102572.06
2023-09-23T09:21:10.609Z,102557.09
2023-09-23T09:26:19.980Z,102534.03
2023-09-23T09:31:23.718Z,102546.94
2023-09-23T09:36:27.186Z,102527.94
2023-09-23T09:41:40.444Z,102546.34
2023-09-23T09:46:46.512Z,102543.56
2023-09-23T09:51:50.950Z,102532.38
2023-09-23T09:56:57.506Z,102529.19
2023-09-23T10:02:01.766Z,102526.88
2023-09-23T10:07:09.048Z,102526.81
2023-09-23T10:12:15.782Z,102522.31
2023-09-23T10:17:28.639Z,102527.56
2023-09-23T10:22:32.081Z,102513.41
2023-09-23T10:27:38.275Z,102521.63
2023-09-23T10:32:45.193Z,102505.06
2023-09-23T10:37:48.465Z,102505.38
2023-09-23T10:42:53.351Z,102505.03
2023-09-23T10:47:57.585Z,102495.91
2023-09-23T10:53:00.789Z,102474.09
2023-09-23T10:58:05.657Z,102483.22
2023-09-23T11:03:11.274Z,102486.72
2023-09-23T11:08:16.022Z,102478.84
2023-09-23T11:13:19.566Z,102452.63
2023-09-23T11:18:22.890Z,102473.22
2023-09-23T11:23:27.915Z,102466.69
2023-09-23T11:28:31.383Z,102434.84
2023-09-23T11:33:35.133Z,102464.19
2023-09-23T11:38:39.214Z,102458.31
2023-09-23T11:43:43.829Z,102429.50
2023-09-23T11:48:49.845Z,102432.28
2023-09-23T11:53:52.977Z,102434.53
2023-09-23T11:59:07.300Z,102442.53
2023-09-23T12:04:12.609Z,102448.88
2023-09-23T12:09:15.957Z,102440.47
2023-09-23T12:14:20.816Z,102442.84
2023-09-23T12:19:23.976Z,102440.09
2023-09-23T12:24:27.061Z,102401.53
2023-09-23T12:29:30.286Z,102400.19
2023-09-23T12:34:34.105Z,102405.81
2023-09-23T12:39:37.485Z,102405.94
2023-09-23T12:44:42.674Z,102426.78
2023-09-23T12:49:47.148Z,102415.84
2023-09-23T12:54:50.091Z,102419.31
2023-09-23T12:59:53.066Z,102406.66
2023-09-23T13:04:56.168Z,102403.88
2023-09-23T13:09:59.364Z,102382.34
2023-09-23T13:15:02.498Z,102409.31
2023-09-23T13:20:07.418Z,102402.78
2023-09-23T13:25:11.077Z,102403.75
2023-09-23T13:30:14.569Z,102369.69
2023-09-23T13:35:19.028Z,102403.91
2023-09-23T13:40:22.140Z,102369.94
2023-09-23T13:45:25.837Z,102392.25
2023-09-23T13:50:29.029Z,102395.53
2023-09-23T13:55:32.245Z,102396.28
2023-09-23T14:00:35.626Z,102387.16
2023-09-23T14:05:38.812Z,102373.69
2023-09-23T14:10:42.064Z,102405.28
2023-09-23T14:15:45.179Z,102392.59
2023-09-23T14:20:48.395Z,102394.63
2023-09-23T14:25:51.542Z,102397.63
2023-09-23T14:30:54.790Z,102392.63
2023-09-23T14:35:57.981Z,102376.25
2023-09-23T14:41:01.193Z,102360.31
2023-09-23T14:46:04.457Z,102388.78
2023-09-23T14:51:07.804Z,102394.91
2023-09-23T14:56:11.972Z,102358.56
2023-09-23T15:01:15.533Z,102380.44
2023-09-23T15:06:18.629Z,102362.88
2023-09-23T15:11:21.804Z,102392.78
2023-09-23T15:16:25.076Z,102397.78
2023-09-23T15:21:28.781Z,102366.38
2023-09-23T15:26:32.029Z,102397.34
2023-09-23T15:31:35.305Z,102390.56
2023-09-23T15:36:38.523Z,102400.63
2023-09-23T15:41:41.686Z,102404.00
2023-09-23T15:46:45.526Z,102372.78
2023-09-23T15:51:49.603Z,102376.34
2023-09-23T15:56:52.747Z,102393.28
2023-09-23T16:01:55.962Z,102399.16
2023-09-23T16:06:59.028Z,102367.31
2023-09-23T16:12:02.221Z,102376.78
2023-09-23T16:17:05.430Z,102379.06
2023-09-23T16:22:09.518Z,102408.34
2023-09-23T16:27:12.822Z,102396.47
2023-09-23T16:32:16.062Z,102410.34
2023-09-23T16:37:20.011Z,102413.97
2023-09-23T16:42:23.154Z,102414.94
2023-09-23T16:47:26.715Z,102414.13
2023-09-23T16:52:29.872Z,102417.63
2023-09-23T16:57:33.222Z,102416.03
2023-09-23T17:02:36.533Z,102398.91
2023-09-23T17:07:39.754Z,102426.06
2023-09-23T17:12:42.843Z,102389.94
2023-09-23T17:17:46.053Z,102428.88
2023-09-23T17:22:49.547Z,102401.00
2023-09-23T17:27:53.051Z,102405.88
2023-09-23T17:32:56.379Z,102435.75
2023-09-23T17:37:59.672Z,102417.28
2023-09-23T17:43:02.857Z,102427.84
2023-09-23T17:48:06.298Z,102418.25
2023-09-23T17:53:09.494Z,102424.50
2023-09-23T17:58:12.657Z,102429.28
2023-09-23T18:03:16.693Z,102427.09
2023-09-23T18:08:20.037Z,102402.34
2023-09-23T18:13:23.185Z,102444.75
2023-09-23T18:18:28.593Z,102435.63
2023-09-23T18:23:32.532Z,102415.88
2023-09-23T18:28:35.878Z,102441.06
2023-09-23T18:33:39.193Z,102433.16
2023-09-23T18:38:42.464Z,102434.13
2023-09-23T18:43:45.994Z,102394.31
2023-09-23T18:48:49.609Z,102413.63
2023-09-23T18:53:54.290Z,102434.91
2023-09-23T18:58:58.308Z,102437.91
2023-09-23T19:04:01.853Z,102439.28
2023-09-23T19:09:05.695Z,102397.88
2023-09-23T19:14:08.862Z,102403.19
2023-09-23T19:19:12.445Z,102446.88
2023-09-23T19:24:16.411Z,102438.09
2023-09-23T19:29:19.655Z,102448.06
2023-09-23T19:34:27.928Z,102420.94
2023-09-23T19:39:32.783Z,102412.56
2023-09-23T19:44:36.133Z,102437.91
2023-09-23T19:49:41.114Z,102411.03
2023-09-23T19:54:44.480Z,102413.03
2023-09-23T19:59:47.633Z,102436.94
2023-09-23T20:04:50.831Z,102437.97
2023-09-23T20:09:57.037Z,102403.38
2023-09-23T20:15:00.194Z,102440.31
2023-09-23T20:20:09.999Z,102444.00
2023-09-23T20:25:13.426Z,102441.06
2023-09-23T20:30:18.031Z,102427.59
2023-09-23T20:35:21.693Z,102443.47
2023-09-23T20:40:24.818Z,102442.97
2023-09-23T20:45:29.526Z,102413.69
2023-09-23T20:50:32.738Z,102444.41
2023-09-23T20:55:36.016Z,102450.25
2023-09-23T21:00:39.220Z,102447.94
2023-09-23T21:05:44.013Z,102456.25
2023-09-23T21:10:47.234Z,102425.22
2023-09-23T21:16:05.997Z,102438.03
2023-09-23T21:21:09.246Z,102440.03
2023-09-23T21:26:12.425Z,102475.19
2023-09-23T21:31:17.262Z,102440.38
2023-09-23T21:36:20.435Z,102473.84
2023-09-23T21:41:23.553Z,102450.69
2023-09-23T21:46:26.836Z,102453.38
2023-09-23T21:51:34.996Z,102440.31
2023-09-23T21:56:44.358Z,102459.72
2023-09-23T22:01:50.562Z,102479.00
2023-09-23T22:06:53.818Z,102487.13
2023-09-23T22:11:58.264Z,102449.13
2023-09-23T22:17:02.056Z,102490.50
2023-09-23T22:22:05.140Z,102479.06
2023-09-23T22:27:09.984Z,102448.78
2023-09-23T22:32:13.572Z,102475.31
2023-09-23T22:37:16.669Z,102449.47
2023-09-23T22:42:19.815Z,102481.22
2023-09-23T22:47:23.066Z,102488.66
2023-09-23T22:52:27.377Z,102487.03
2023-09-23T22:57:30.598Z,102487.44
2023-09-23T23:02:33.762Z,102460.09
2023-09-23T23:07:40.020Z,102462.50
2023-09-23T23:12:47.781Z,102471.09
2023-09-23T23:17:56.343Z,102464.66
2023-09-23T23:22:59.510Z,102461.81
2023-09-23T23:28:02.614Z,102466.16
2023-09-23T23:33:06.198Z,102472.13
2023-09-23T23:38:13.159Z,102478.72
2023-09-23T23:43:16.260Z,102472.38
2023-09-23T23:48:22.431Z,102465.97
2023-09-23T23:53:25.714Z,102503.94
2023-09-23T23:58:29.037Z,102471.28
